sensor_id;sensor_type;location;lat;lon;timestamp;pressure;altitude;pressure_sealevel;temperature;humidity
63582;BME280;49727;51.078;17.066;2023-04-27T00:11:22;100393.44;;;3.04;61.88
63582;BME280;49727;51.078;17.066;2023-04-27T00:26:22;100382.19;;;2.91;61.83
63582;BME280;49727;51.078;17.066;2023-04-27T00:41:23;100385.63;;;2.80;62.51
63582;BME280;49727;51.078;17.066;2023-04-27T00:56:23;100399.94;;;2.76;62.66
63582;BME280;49727;51.078;17.066;2023-04-27T01:11:23;100390.09;;;2.66;62.78
63582;BME280;49727;51.078;17.066;2023-04-27T01:26:24;100391.03;;;2.54;63.24
63582;BME280;49727;51.078;17.066;2023-04-27T01:41:25;100398.16;;;2.41;63.19
63582;BME280;49727;51.078;17.066;2023-04-27T01:56:25;100398.53;;;2.23;63.67
63582;BME280;49727;51.078;17.066;2023-04-27T02:11:25;100406.13;;;2.15;64.18
63582;BME280;49727;51.078;17.066;2023-04-27T02:26:26;100409.53;;;2.04;63.94
63582;BME280;49727;51.078;17.066;2023-04-27T02:41:31;100418.69;;;1.98;64.20
63582;BME280;49727;51.078;17.066;2023-04-27T02:56:32;100419.78;;;1.83;64.72
63582;BME280;49727;51.078;17.066;2023-04-27T03:11:32;100419.06;;;1.81;65.00
63582;BME280;49727;51.078;17.066;2023-04-27T03:26:32;100415.50;;;1.82;64.73
63582;BME280;49727;51.078;17.066;2023-04-27T03:41:32;100427.22;;;1.89;65.20
63582;BME280;49727;51.078;17.066;2023-04-27T03:56:33;100447.44;;;2.13;64.87
63582;BME280;49727;51.078;17.066;2023-04-27T04:11:33;100461.44;;;2.50;65.01
63582;BME280;49727;51.078;17.066;2023-04-27T04:26:34;100481.78;;;3.19;64.74
63582;BME280;49727;51.078;17.066;2023-04-27T04:41:34;100491.94;;;3.71;63.74
63582;BME280;49727;51.078;17.066;2023-04-27T04:56:36;100499.25;;;4.13;62.98
63582;BME280;49727;51.078;17.066;2023-04-27T05:11:36;100510.34;;;4.62;62.01
63582;BME280;49727;51.078;17.066;2023-04-27T05:26:37;100517.19;;;4.97;60.67
63582;BME280;49727;51.078;17.066;2023-04-27T05:41:37;100525.94;;;5.51;59.78
63582;BME280;49727;51.078;17.066;2023-04-27T05:56:37;100544.50;;;6.43;59.01
63582;BME280;49727;51.078;17.066;2023-04-27T06:11:38;100541.13;;;7.51;56.42
63582;BME280;49727;51.078;17.066;2023-04-27T06:26:38;100550.16;;;8.53;54.67
63582;BME280;49727;51.078;17.066;2023-04-27T06:41:38;100556.03;;;9.02;53.36
63582;BME280;49727;51.078;17.066;2023-04-27T06:56:39;100542.59;;;9.92;50.97
63582;BME280;49727;51.078;17.066;2023-04-27T07:11:39;100534.19;;;10.91;49.99
63582;BME280;49727;51.078;17.066;2023-04-27T07:26:40;100539.56;;;12.69;47.52
63582;BME280;49727;51.078;17.066;2023-04-27T07:41:40;100537.88;;;13.46;43.82
63582;BME280;49727;51.078;17.066;2023-04-27T07:56:41;100543.09;;;14.67;40.59
63582;BME280;49727;51.078;17.066;2023-04-27T08:11:42;100550.69;;;16.35;37.02
63582;BME280;49727;51.078;17.066;2023-04-27T08:26:42;100555.34;;;17.63;33.25
63582;BME280;49727;51.078;17.066;2023-04-27T08:41:43;100558.50;;;18.52;31.56
63582;BME280;49727;51.078;17.066;2023-04-27T08:56:43;100555.03;;;18.84;30.10
63582;BME280;49727;51.078;17.066;2023-04-27T09:11:44;100557.41;;;19.37;29.87
63582;BME280;49727;51.078;17.066;2023-04-27T09:26:48;100545.97;;;18.19;28.36
63582;BME280;49727;51.078;17.066;2023-04-27T09:41:49;100549.31;;;16.11;30.46
63582;BME280;49727;51.078;17.066;2023-04-27T10:12:25;100548.50;;;14.88;31.41
63582;BME280;49727;51.078;17.066;2023-04-27T10:27:26;100541.25;;;13.93;33.35
63582;BME280;49727;51.078;17.066;2023-04-27T10:42:26;100547.72;;;12.99;35.15
63582;BME280;49727;51.078;17.066;2023-04-27T10:57:27;100540.09;;;16.20;31.27
63582;BME280;49727;51.078;17.066;2023-04-27T11:12:30;100553.88;;;15.10;31.29
63582;BME280;49727;51.078;17.066;2023-04-27T11:27:38;100562.19;;;14.79;30.93
63582;BME280;49727;51.078;17.066;2023-04-27T11:42:39;100566.00;;;13.80;33.50
63582;BME280;49727;51.078;17.066;2023-04-27T11:57:42;100575.09;;;15.05;31.15
63582;BME280;49727;51.078;17.066;2023-04-27T12:12:42;100579.97;;;16.65;30.67
63582;BME280;49727;51.078;17.066;2023-04-27T12:27:43;100561.75;;;17.89;28.97
63582;BME280;49727;51.078;17.066;2023-04-27T12:42:46;100563.81;;;18.66;26.83
63582;BME280;49727;51.078;17.066;2023-04-27T12:57:46;100552.03;;;17.74;26.37
63582;BME280;49727;51.078;17.066;2023-04-27T13:12:47;100547.88;;;15.30;26.45
63582;BME280;49727;51.078;17.066;2023-04-27T13:27:47;100557.78;;;16.98;26.07
63582;BME280;49727;51.078;17.066;2023-04-27T13:42:47;100560.31;;;16.16;25.59
63582;BME280;49727;51.078;17.066;2023-04-27T13:57:48;100575.75;;;16.42;30.13
63582;BME280;49727;51.078;17.066;2023-04-27T14:12:48;100564.78;;;16.44;31.26
63582;BME280;49727;51.078;17.066;2023-04-27T14:27:48;100566.97;;;16.20;31.97
63582;BME280;49727;51.078;17.066;2023-04-27T14:42:49;100567.56;;;16.22;31.06
63582;BME280;49727;51.078;17.066;2023-04-27T14:57:49;100563.03;;;15.66;30.88
63582;BME280;49727;51.078;17.066;2023-04-27T15:12:50;100567.91;;;14.91;31.09
63582;BME280;49727;51.078;17.066;2023-04-27T15:27:50;100566.63;;;13.67;31.99
63582;BME280;49727;51.078;17.066;2023-04-27T15:42:51;100569.72;;;13.94;32.76
63582;BME280;49727;51.078;17.066;2023-04-27T15:57:52;100568.25;;;13.53;33.50
63582;BME280;49727;51.078;17.066;2023-04-27T16:12:52;100556.16;;;13.34;34.35
63582;BME280;49727;51.078;17.066;2023-04-27T16:27:52;100568.66;;;13.18;34.58
63582;BME280;49727;51.078;17.066;2023-04-27T16:42:53;100567.50;;;12.90;34.87
63582;BME280;49727;51.078;17.066;2023-04-27T16:57:53;100571.22;;;12.49;34.94
63582;BME280;49727;51.078;17.066;2023-04-27T17:12:53;100576.88;;;11.81;35.72
63582;BME280;49727;51.078;17.066;2023-04-27T17:27:54;100576.91;;;11.32;36.95
63582;BME280;49727;51.078;17.066;2023-04-27T17:42:54;100570.44;;;10.75;37.83
63582;BME280;49727;51.078;17.066;2023-04-27T17:57:56;100567.75;;;9.98;38.67
63582;BME280;49727;51.078;17.066;2023-04-27T18:12:57;100579.25;;;9.18;39.70
63582;BME280;49727;51.078;17.066;2023-04-27T18:27:57;100599.88;;;8.60;41.42
63582;BME280;49727;51.078;17.066;2023-04-27T18:42:58;100614.13;;;8.22;43.13
63582;BME280;49727;51.078;17.066;2023-04-27T18:57:58;100623.13;;;7.82;44.78
63582;BME280;49727;51.078;17.066;2023-04-27T19:12:58;100632.38;;;7.58;46.46
63582;BME280;49727;51.078;17.066;2023-04-27T19:27:58;100641.97;;;7.29;47.95
63582;BME280;49727;51.078;17.066;2023-04-27T19:42:59;100654.53;;;7.27;48.80
63582;BME280;49727;51.078;17.066;2023-04-27T19:57:59;100658.31;;;7.25;48.76
63582;BME280;49727;51.078;17.066;2023-04-27T20:13:00;100659.78;;;7.08;49.41
63582;BME280;49727;51.078;17.066;2023-04-27T20:28:00;100659.66;;;6.59;51.01
63582;BME280;49727;51.078;17.066;2023-04-27T20:43:00;100668.34;;;6.40;51.62
63582;BME280;49727;51.078;17.066;2023-04-27T20:58:01;100662.88;;;6.32;53.00
63582;BME280;49727;51.078;17.066;2023-04-27T21:13:01;100642.66;;;6.09;53.39
63582;BME280;49727;51.078;17.066;2023-04-27T21:28:03;100636.84;;;5.73;54.49
63582;BME280;49727;51.078;17.066;2023-04-27T21:43:03;100649.69;;;5.46;55.61
63582;BME280;49727;51.078;17.066;2023-04-27T21:58:05;100657.19;;;5.29;55.96
63582;BME280;49727;51.078;17.066;2023-04-27T22:13:05;100657.38;;;5.05;56.62
63582;BME280;49727;51.078;17.066;2023-04-27T22:28:05;100661.69;;;4.95;57.07
63582;BME280;49727;51.078;17.066;2023-04-27T22:43:06;100656.38;;;5.17;57.96
63582;BME280;49727;51.078;17.066;2023-04-27T22:58:06;100652.13;;;5.37;58.07
63582;BME280;49727;51.078;17.066;2023-04-27T23:13:06;100641.13;;;5.53;57.97
63582;BME280;49727;51.078;17.066;2023-04-27T23:28:10;100622.19;;;5.48;57.84
63582;BME280;49727;51.078;17.066;2023-04-27T23:43:10;100628.69;;;5.44;58.19
63582;BME280;49727;51.078;17.066;2023-04-27T23:58:10;100628.44;;;5.47;58.35
